Time;durP1;ratioP1;P1;durP2;ratioP2;P2;SDS_P1;SDS_P2;PMS_P1;PMS_P2;Temp;Humidity;BMP_temperature;BMP_pressure;BME280_temperature;BME280_humidity;BME280_pressure;Samples;Min_cycle;Max_cycle;Signal;HPM_P1;HPM_P2
2024/03/07 00:00:03;;;;;;;28.87;16.73;;;0.90;1.00;;;;;;5099122;28;20287;-81
2024/03/07 00:02:33;;;;;;;27.60;14.63;;;1.00;1.00;;;;;;5100659;28;20619;-81
2024/03/07 00:05:00;;;;;;;24.23;13.77;;;1.00;1.00;;;;;;5099448;28;20206;-81
2024/03/07 00:07:27;;;;;;;28.63;16.23;;;0.90;1.00;;;;;;5099916;28;20220;-80
2024/03/07 00:09:55;;;;;;;26.33;14.50;;;0.90;1.00;;;;;;5102261;28;20225;-81
2024/03/07 00:12:23;;;;;;;26.20;14.30;;;0.80;1.00;;;;;;5100630;28;20258;-81
2024/03/07 00:14:50;;;;;;;27.70;15.70;;;0.80;1.00;;;;;;5110060;28;20204;-82
2024/03/07 00:17:17;;;;;;;27.77;15.97;;;0.90;1.00;;;;;;5104056;28;20217;-82
2024/03/07 00:19:47;;;;;;;28.33;16.00;;;0.90;1.00;;;;;;5104788;28;20217;-82
2024/03/07 00:22:14;;;;;;;27.90;14.47;;;0.70;1.00;;;;;;5105698;28;20201;-84
2024/03/07 00:24:42;;;;;;;26.00;15.47;;;0.60;1.00;;;;;;5102478;28;20197;-81
2024/03/07 00:27:14;;;;;;;27.53;14.33;;;0.70;1.00;;;;;;5105612;28;20228;-80
2024/03/07 00:29:41;;;;;;;28.47;15.70;;;0.70;1.00;;;;;;5106644;28;20738;-83
2024/03/07 00:32:09;;;;;;;27.43;15.97;;;0.70;1.00;;;;;;5102103;27;20208;-82
2024/03/07 00:34:36;;;;;;;28.20;15.63;;;0.90;99.90;;;;;;5105206;28;20201;-81
2024/03/07 00:37:05;;;;;;;28.43;16.40;;;1.00;99.90;;;;;;5109845;28;20247;-81
2024/03/07 00:39:33;;;;;;;29.70;16.30;;;0.80;1.00;;;;;;5112241;28;20205;-82
2024/03/07 00:42:00;;;;;;;25.87;15.23;;;0.90;1.00;;;;;;5103549;28;20200;-81
2024/03/07 00:44:27;;;;;;;24.93;13.87;;;0.80;1.00;;;;;;5100386;28;20217;-82
2024/03/07 00:46:53;;;;;;;25.03;14.80;;;0.70;1.00;;;;;;5109340;28;20262;-81
2024/03/07 00:49:20;;;;;;;26.47;15.17;;;0.60;1.00;;;;;;5102232;28;20208;-80
2024/03/07 00:51:47;;;;;;;24.13;14.00;;;0.60;1.00;;;;;;5102026;27;20220;-80
2024/03/07 00:54:16;;;;;;;24.97;14.53;;;0.40;1.00;;;;;;5099766;28;20208;-81
2024/03/07 00:56:42;;;;;;;25.10;14.43;;;0.40;1.00;;;;;;5098509;28;20293;-81
2024/03/07 00:59:09;;;;;;;29.00;15.00;;;0.30;1.00;;;;;;5104345;28;20647;-81
2024/03/07 01:01:38;;;;;;;26.80;16.90;;;0.20;1.00;;;;;;5102667;28;20748;-83
2024/03/07 01:04:04;;;;;;;27.77;15.20;;;0.10;1.00;;;;;;5103764;28;20224;-84
2024/03/07 01:06:32;;;;;;;26.20;14.90;;;0.00;1.00;;;;;;5102253;28;20204;-81
2024/03/07 01:08:59;;;;;;;28.63;15.57;;;0.10;99.90;;;;;;5105576;28;20208;-82
2024/03/07 01:11:27;;;;;;;23.90;14.33;;;0.40;99.90;;;;;;5110351;28;20240;-81
2024/03/07 01:13:55;;;;;;;27.40;15.97;;;0.40;99.90;;;;;;5108973;28;20742;-80
2024/03/07 01:16:22;;;;;;;28.37;16.23;;;0.40;99.90;;;;;;5102723;28;20250;-80
2024/03/07 01:18:49;;;;;;;27.77;15.17;;;0.50;99.90;;;;;;5105962;28;20212;-81
2024/03/07 01:21:16;;;;;;;27.10;16.03;;;0.50;99.90;;;;;;5101977;28;20224;-82
2024/03/07 01:23:43;;;;;;;27.80;15.50;;;0.30;99.90;;;;;;5109318;28;20676;-82
2024/03/07 01:26:09;;;;;;;25.90;15.57;;;0.30;99.90;;;;;;5103094;28;20674;-81
2024/03/07 01:28:37;;;;;;;26.10;15.07;;;0.20;99.90;;;;;;5106563;28;20197;-82
2024/03/07 01:31:04;;;;;;;30.23;15.87;;;0.20;99.90;;;;;;5103572;28;20703;-82
2024/03/07 01:33:31;;;;;;;26.47;15.43;;;0.40;99.90;;;;;;5099403;28;20221;-83
2024/03/07 01:35:58;;;;;;;26.40;14.90;;;0.10;99.90;;;;;;5102690;28;20768;-81
2024/03/07 01:38:25;;;;;;;28.77;15.40;;;0.00;99.90;;;;;;5108609;28;20221;-80
2024/03/07 01:40:52;;;;;;;25.77;14.90;;;0.10;99.90;;;;;;5104473;28;20222;-80
2024/03/07 01:43:18;;;;;;;29.60;15.40;;;0.10;99.90;;;;;;5107287;28;20193;-82
2024/03/07 01:45:47;;;;;;;29.33;14.77;;;0.10;99.90;;;;;;5105733;28;20205;-82
2024/03/07 01:48:25;;;;;;;28.07;15.27;;;0.20;99.90;;;;;;5104293;28;20196;-82
2024/03/07 01:50:52;;;;;;;29.00;16.97;;;0.20;99.90;;;;;;5103187;28;20598;-82
2024/03/07 01:53:20;;;;;;;27.93;17.00;;;0.40;99.90;;;;;;5098157;28;20209;-83
2024/03/07 01:55:47;;;;;;;30.20;15.70;;;0.30;99.90;;;;;;5100266;28;20290;-81
2024/03/07 01:58:18;;;;;;;32.17;16.70;;;0.40;99.90;;;;;;5098091;28;20224;-82
2024/03/07 02:00:47;;;;;;;28.47;18.27;;;0.60;99.90;;;;;;5102164;28;20221;-83
2024/03/07 02:03:14;;;;;;;30.43;16.67;;;0.70;99.90;;;;;;5096963;28;20213;-80
2024/03/07 02:05:41;;;;;;;27.87;15.73;;;0.80;99.90;;;;;;5104550;28;20196;-81
2024/03/07 02:08:08;;;;;;;28.07;16.40;;;0.70;99.90;;;;;;5100712;28;20209;-81
2024/03/07 02:10:35;;;;;;;30.93;16.40;;;0.60;99.90;;;;;;5096324;28;20764;-82
2024/03/07 02:13:02;;;;;;;27.47;15.77;;;0.70;99.90;;;;;;5107238;28;20216;-80
2024/03/07 02:15:29;;;;;;;27.90;15.50;;;0.70;99.90;;;;;;5100565;28;20215;-82
2024/03/07 02:17:57;;;;;;;30.40;16.93;;;0.70;99.90;;;;;;5103172;28;20279;-84
2024/03/07 02:20:24;;;;;;;26.07;15.50;;;0.60;99.90;;;;;;5098727;28;20687;-81
2024/03/07 02:22:52;;;;;;;31.80;17.00;;;0.40;99.90;;;;;;5104792;28;20240;-83
2024/03/07 02:25:19;;;;;;;32.47;17.53;;;0.40;99.90;;;;;;5104716;28;20205;-85
2024/03/07 02:27:46;;;;;;;28.97;17.20;;;0.30;99.90;;;;;;5103402;28;20197;-81
2024/03/07 02:30:14;;;;;;;30.23;17.47;;;0.40;99.90;;;;;;5100276;28;20714;-83
2024/03/07 02:32:41;;;;;;;28.73;16.90;;;0.30;99.90;;;;;;5106829;28;20261;-81
2024/03/07 02:35:09;;;;;;;28.43;16.73;;;0.40;99.90;;;;;;5101675;28;20201;-82
2024/03/07 02:37:36;;;;;;;30.67;16.77;;;0.10;99.90;;;;;;5112214;28;20208;-81
2024/03/07 02:40:05;;;;;;;27.67;15.80;;;0.10;99.90;;;;;;5110545;28;20225;-81
2024/03/07 02:42:32;;;;;;;29.63;16.43;;;0.00;99.90;;;;;;5103425;28;20300;-81
2024/03/07 02:44:59;;;;;;;29.50;16.07;;;0.20;99.90;;;;;;5114036;28;20220;-81
2024/03/07 02:47:26;;;;;;;26.50;14.83;;;0.20;99.90;;;;;;5110521;28;20197;-81
2024/03/07 02:49:53;;;;;;;29.17;16.33;;;0.20;99.90;;;;;;5111293;28;20213;-81
2024/03/07 02:52:19;;;;;;;30.67;16.77;;;0.20;99.90;;;;;;5102940;28;20198;-83
2024/03/07 02:54:47;;;;;;;28.67;16.43;;;0.20;99.90;;;;;;5104213;28;20205;-83
2024/03/07 02:57:15;;;;;;;29.30;16.93;;;0.30;99.90;;;;;;5103288;28;20682;-81
2024/03/07 02:59:43;;;;;;;29.80;18.10;;;0.30;99.90;;;;;;5104250;28;20263;-82
2024/03/07 03:02:09;;;;;;;28.53;17.77;;;0.30;99.90;;;;;;5105155;28;20201;-81
2024/03/07 03:04:36;;;;;;;26.00;14.87;;;0.20;99.90;;;;;;5108760;27;20208;-83
2024/03/07 03:07:03;;;;;;;30.77;17.60;;;0.20;99.90;;;;;;5104182;28;20688;-83
2024/03/07 03:09:30;;;;;;;27.00;15.30;;;0.20;99.90;;;;;;5107931;28;20197;-80
2024/03/07 03:11:56;;;;;;;31.63;17.57;;;0.40;99.90;;;;;;5106306;28;20225;-81
2024/03/07 03:14:24;;;;;;;28.43;15.93;;;0.40;99.90;;;;;;5099248;28;20202;-82
2024/03/07 03:16:51;;;;;;;30.00;16.70;;;0.50;99.90;;;;;;5107274;28;20204;-82
2024/03/07 03:19:18;;;;;;;26.60;14.87;;;0.50;99.90;;;;;;5107274;28;20223;-82
2024/03/07 03:21:45;;;;;;;26.60;15.60;;;0.80;99.90;;;;;;5107385;28;20676;-83
2024/03/07 03:24:12;;;;;;;27.50;17.90;;;0.60;99.90;;;;;;5109236;28;20211;-81
2024/03/07 03:26:42;;;;;;;29.90;16.80;;;0.50;99.90;;;;;;5104911;28;20672;-80
2024/03/07 03:29:09;;;;;;;31.60;19.87;;;0.70;99.90;;;;;;5109986;28;20213;-80
2024/03/07 03:31:37;;;;;;;29.13;16.57;;;0.70;99.90;;;;;;5101080;27;20220;-82
2024/03/07 03:34:04;;;;;;;27.60;15.53;;;0.80;99.90;;;;;;5108013;28;20292;-81
2024/03/07 03:36:32;;;;;;;29.17;16.13;;;0.80;99.90;;;;;;5109732;28;20205;-84
2024/03/07 03:39:00;;;;;;;29.00;16.63;;;0.80;99.90;;;;;;5107757;28;20794;-81
2024/03/07 03:41:27;;;;;;;28.43;16.57;;;0.80;99.90;;;;;;5105319;28;20283;-85
2024/03/07 03:43:53;;;;;;;30.07;16.60;;;0.90;99.90;;;;;;5108623;28;20625;-81
2024/03/07 03:46:20;;;;;;;28.77;16.53;;;1.00;99.90;;;;;;5103521;28;20224;-81
2024/03/07 03:48:50;;;;;;;28.93;16.63;;;1.10;99.90;;;;;;5108497;28;20221;-83
2024/03/07 03:51:17;;;;;;;30.13;16.20;;;1.10;99.90;;;;;;5109280;28;20214;-82
2024/03/07 03:53:44;;;;;;;28.70;16.07;;;1.10;99.90;;;;;;5105825;28;20230;-83
2024/03/07 03:56:12;;;;;;;27.63;14.93;;;1.00;99.90;;;;;;5104054;28;20208;-82
2024/03/07 03:58:41;;;;;;;27.53;15.63;;;1.00;99.90;;;;;;5099541;28;20221;-82
2024/03/07 04:01:12;;;;;;;26.97;16.33;;;1.20;99.90;;;;;;5100054;28;20595;-82
2024/03/07 04:03:39;;;;;;;28.17;15.03;;;1.20;99.90;;;;;;5105153;28;20208;-82
2024/03/07 04:06:08;;;;;;;24.13;14.87;;;1.10;99.90;;;;;;5105160;28;20197;-82
2024/03/07 04:08:36;;;;;;;27.57;17.13;;;1.20;99.90;;;;;;5108262;28;20197;-82
2024/03/07 04:11:04;;;;;;;30.47;16.50;;;1.30;99.90;;;;;;5108783;28;20245;-81
2024/03/07 04:13:31;;;;;;;29.67;16.33;;;1.40;99.90;;;;;;5107786;28;20220;-81
2024/03/07 04:15:59;;;;;;;26.90;14.83;;;1.50;99.90;;;;;;5108628;28;20228;-80
2024/03/07 04:18:26;;;;;;;27.47;15.53;;;1.40;99.90;;;;;;5109427;28;20217;-80
2024/03/07 04:20:54;;;;;;;27.13;15.17;;;1.40;99.90;;;;;;5114179;28;20233;-81
2024/03/07 04:23:22;;;;;;;29.10;14.60;;;1.50;99.90;;;;;;5113441;28;20227;-82
2024/03/07 04:25:49;;;;;;;30.43;16.37;;;1.50;99.90;;;;;;5112017;28;20643;-82
2024/03/07 04:28:15;;;;;;;24.77;14.60;;;1.60;99.90;;;;;;5112984;28;20663;-83
2024/03/07 04:30:43;;;;;;;25.07;14.20;;;1.60;99.90;;;;;;5108959;28;20217;-82
2024/03/07 04:33:10;;;;;;;25.00;14.73;;;1.50;99.90;;;;;;5111690;28;20198;-81
2024/03/07 04:35:36;;;;;;;23.70;13.87;;;1.50;99.90;;;;;;5109224;28;20207;-81
2024/03/07 04:38:03;;;;;;;24.93;13.70;;;1.60;99.90;;;;;;5111767;28;20202;-79
2024/03/07 04:40:32;;;;;;;24.37;14.40;;;1.60;99.90;;;;;;5113342;27;20221;-81
2024/03/07 04:42:59;;;;;;;26.00;15.27;;;1.70;99.90;;;;;;5112728;28;20217;-80
2024/03/07 04:45:26;;;;;;;24.97;14.70;;;1.80;99.90;;;;;;5113268;28;20689;-79
2024/03/07 04:47:52;;;;;;;26.60;15.67;;;1.80;99.90;;;;;;5113143;28;20216;-80
2024/03/07 04:50:19;;;;;;;25.50;15.40;;;1.90;99.90;;;;;;5115235;28;20701;-79
2024/03/07 04:52:46;;;;;;;24.43;13.40;;;1.90;99.90;;;;;;5109692;28;20205;-79
2024/03/07 04:55:13;;;;;;;26.40;16.40;;;2.00;99.90;;;;;;5104687;28;20201;-80
2024/03/07 04:57:41;;;;;;;26.83;14.90;;;1.80;99.90;;;;;;5104363;28;20198;-79
2024/03/07 05:00:13;;;;;;;28.50;15.43;;;1.90;99.90;;;;;;5108356;28;20252;-80
2024/03/07 05:02:40;;;;;;;24.47;14.77;;;1.90;99.90;;;;;;5099556;28;20330;-80
2024/03/07 05:05:07;;;;;;;28.53;15.43;;;2.00;99.90;;;;;;5101280;28;20230;-81
2024/03/07 05:07:35;;;;;;;27.57;15.70;;;2.00;99.90;;;;;;5106211;28;20539;-84
2024/03/07 05:10:02;;;;;;;26.53;14.97;;;2.10;99.90;;;;;;5104696;28;20213;-79
2024/03/07 05:12:29;;;;;;;28.77;15.80;;;2.10;99.90;;;;;;5109596;28;20766;-82
2024/03/07 05:14:57;;;;;;;25.93;14.80;;;2.20;99.90;;;;;;5106545;28;20205;-80
2024/03/07 05:17:24;;;;;;;28.97;16.13;;;2.20;99.90;;;;;;5098099;28;20198;-80
2024/03/07 05:19:51;;;;;;;26.57;15.60;;;2.10;99.90;;;;;;5104927;28;20249;-81
2024/03/07 05:22:20;;;;;;;23.87;14.50;;;2.20;99.90;;;;;;5111937;28;20197;-83
2024/03/07 05:24:47;;;;;;;24.00;13.70;;;2.20;99.90;;;;;;5107318;28;20631;-81
2024/03/07 05:27:15;;;;;;;25.07;14.60;;;2.20;99.90;;;;;;5107828;28;20207;-81
2024/03/07 05:29:42;;;;;;;25.80;14.23;;;2.20;99.90;;;;;;5109578;28;20199;-82
2024/03/07 05:32:25;;;;;;;29.73;16.70;;;2.10;99.90;;;;;;5109665;28;20193;-80
2024/03/07 05:34:53;;;;;;;26.93;16.03;;;2.20;99.90;;;;;;5108640;28;20236;-83
2024/03/07 05:37:21;;;;;;;28.33;15.80;;;2.10;99.90;;;;;;5106190;28;20412;-80
2024/03/07 05:39:48;;;;;;;26.67;15.07;;;2.00;99.90;;;;;;5103636;28;20236;-82
2024/03/07 05:42:15;;;;;;;25.63;14.70;;;2.10;99.90;;;;;;5113337;28;20569;-78
2024/03/07 05:44:42;;;;;;;26.73;15.43;;;2.00;99.90;;;;;;5113156;28;20205;-81
2024/03/07 05:47:09;;;;;;;28.50;15.97;;;2.10;99.90;;;;;;5110395;28;20250;-79
2024/03/07 05:49:38;;;;;;;28.67;15.77;;;2.20;99.90;;;;;;5112066;28;20201;-82
2024/03/07 05:52:06;;;;;;;29.03;16.67;;;2.20;99.90;;;;;;5108018;28;20197;-82
2024/03/07 05:54:33;;;;;;;26.50;15.83;;;2.20;99.90;;;;;;5099836;28;20201;-81
2024/03/07 05:57:00;;;;;;;27.27;16.23;;;2.20;99.90;;;;;;5099094;28;20193;-80
2024/03/07 05:59:28;;;;;;;26.67;15.93;;;2.30;99.90;;;;;;5103065;28;20213;-81
2024/03/07 06:01:55;;;;;;;27.70;16.73;;;2.30;99.90;;;;;;5105949;28;20212;-84
2024/03/07 06:04:22;;;;;;;27.93;14.97;;;2.20;99.90;;;;;;5103510;28;20243;-80
2024/03/07 06:06:50;;;;;;;29.77;17.00;;;2.30;99.90;;;;;;5110013;28;20583;-81
2024/03/07 06:09:21;;;;;;;27.90;15.93;;;2.30;99.90;;;;;;5106855;28;20611;-79
2024/03/07 06:11:48;;;;;;;26.87;15.93;;;2.20;99.90;;;;;;5102689;28;20779;-82
2024/03/07 06:14:16;;;;;;;32.00;18.50;;;2.30;99.90;;;;;;5105966;28;20203;-80
2024/03/07 06:16:43;;;;;;;31.30;17.33;;;2.20;99.90;;;;;;5101743;28;20267;-80
2024/03/07 06:19:10;;;;;;;29.73;16.10;;;2.30;99.90;;;;;;5108208;28;20303;-84
2024/03/07 06:21:39;;;;;;;30.27;16.13;;;2.30;99.90;;;;;;5107855;28;20308;-84
2024/03/07 06:24:08;;;;;;;30.37;17.60;;;2.30;99.90;;;;;;5102212;28;20656;-81
2024/03/07 06:26:45;;;;;;;28.77;15.43;;;2.40;99.90;;;;;;5106118;28;20223;-80
2024/03/07 06:29:13;;;;;;;29.93;16.50;;;2.30;99.90;;;;;;5104496;28;20231;-80
2024/03/07 06:31:40;;;;;;;29.63;15.90;;;2.20;99.90;;;;;;5098794;28;20235;-79
2024/03/07 06:34:08;;;;;;;29.17;15.53;;;2.20;99.90;;;;;;5105565;28;20205;-81
2024/03/07 06:36:35;;;;;;;29.63;15.63;;;2.40;99.90;;;;;;5100800;28;20209;-81
2024/03/07 06:39:02;;;;;;;27.13;16.20;;;2.40;99.90;;;;;;5104002;28;20225;-79
2024/03/07 06:41:31;;;;;;;27.63;16.23;;;2.40;99.90;;;;;;5109313;28;20220;-79
2024/03/07 06:43:58;;;;;;;27.50;16.07;;;2.50;99.90;;;;;;5105587;28;20241;-79
2024/03/07 06:46:24;;;;;;;28.80;15.40;;;2.40;99.90;;;;;;5106936;28;20201;-79
2024/03/07 06:48:52;;;;;;;27.10;14.90;;;2.40;99.90;;;;;;5094857;28;20214;-78
2024/03/07 06:51:19;;;;;;;27.50;16.63;;;2.40;99.90;;;;;;5093400;28;20224;-83
2024/03/07 06:53:46;;;;;;;29.03;15.73;;;2.40;99.90;;;;;;5092940;28;20293;-80
2024/03/07 06:56:13;;;;;;;28.50;16.20;;;2.40;99.90;;;;;;5094340;28;20574;-82
2024/03/07 06:58:42;;;;;;;30.30;17.83;;;2.50;99.90;;;;;;5093765;28;20284;-78
2024/03/07 07:01:10;;;;;;;30.93;16.10;;;2.50;99.90;;;;;;5096240;28;20730;-79
2024/03/07 07:03:37;;;;;;;28.67;16.30;;;2.50;99.90;;;;;;5101876;28;20205;-80
2024/03/07 07:06:05;;;;;;;30.83;17.67;;;2.60;99.90;;;;;;5099568;28;20232;-81
2024/03/07 07:08:32;;;;;;;31.57;17.80;;;2.50;99.90;;;;;;5098194;28;20258;-80
2024/03/07 07:10:59;;;;;;;32.27;17.27;;;2.60;99.90;;;;;;5103846;28;20704;-80
2024/03/07 07:13:26;;;;;;;31.73;18.27;;;2.60;99.90;;;;;;5106339;28;20337;-80
2024/03/07 07:15:54;;;;;;;31.47;17.23;;;2.60;99.90;;;;;;5105217;28;20202;-80
2024/03/07 07:18:23;;;;;;;32.17;16.60;;;2.60;99.90;;;;;;5097188;28;20201;-81
2024/03/07 07:20:51;;;;;;;31.50;17.53;;;2.60;99.90;;;;;;5102332;28;20986;-83
2024/03/07 07:23:18;;;;;;;31.03;18.30;;;2.60;99.90;;;;;;5103761;28;20235;-82
2024/03/07 07:25:46;;;;;;;31.83;16.67;;;2.70;99.90;;;;;;5103259;28;20202;-79
2024/03/07 07:28:13;;;;;;;31.63;17.70;;;2.70;99.90;;;;;;5105963;28;20232;-82
2024/03/07 07:30:40;;;;;;;35.33;19.10;;;2.70;99.90;;;;;;5098721;28;20221;-82
2024/03/07 07:33:08;;;;;;;33.17;19.77;;;2.80;99.90;;;;;;5110895;28;20201;-81
2024/03/07 07:35:35;;;;;;;34.67;19.03;;;2.80;99.90;;;;;;5109568;28;20679;-80
2024/03/07 07:38:02;;;;;;;35.13;18.47;;;2.80;99.90;;;;;;5111154;28;20323;-79
2024/03/07 07:40:31;;;;;;;35.70;18.77;;;2.80;99.90;;;;;;5113748;28;20743;-80
2024/03/07 07:42:57;;;;;;;33.20;17.97;;;2.80;99.90;;;;;;5109406;27;20201;-81
2024/03/07 07:45:25;;;;;;;36.03;18.67;;;3.00;99.90;;;;;;5102497;28;20218;-81
2024/03/07 07:47:53;;;;;;;34.20;18.87;;;2.90;99.90;;;;;;5103893;28;20216;-80
2024/03/07 07:50:23;;;;;;;32.70;18.60;;;2.90;99.90;;;;;;5095716;28;20214;-79
2024/03/07 07:52:53;;;;;;;35.20;18.87;;;3.00;99.90;;;;;;5097434;28;20205;-79
2024/03/07 07:55:21;;;;;;;35.03;19.17;;;3.00;99.90;;;;;;5096644;28;20212;-79
2024/03/07 07:57:49;;;;;;;35.17;19.40;;;3.00;99.90;;;;;;5104115;28;20273;-79
2024/03/07 08:00:22;;;;;;;37.27;20.13;;;3.00;99.90;;;;;;5097408;28;20229;-79
2024/03/07 08:02:54;;;;;;;33.50;18.73;;;3.10;99.90;;;;;;5096086;28;20559;-78
2024/03/07 08:05:23;;;;;;;35.70;19.70;;;3.10;99.90;;;;;;5100888;28;20203;-79
2024/03/07 08:07:50;;;;;;;35.17;19.63;;;3.10;99.90;;;;;;5099202;28;20271;-81
2024/03/07 08:10:18;;;;;;;33.57;19.87;;;3.10;99.90;;;;;;5104998;28;20221;-79
2024/03/07 08:12:45;;;;;;;35.57;18.90;;;3.60;99.90;;;;;;5106753;28;20209;-81
2024/03/07 08:15:13;;;;;;;42.53;20.97;;;3.30;99.90;;;;;;5101308;28;20633;-79
2024/03/07 08:17:42;;;;;;;41.00;22.37;;;3.30;99.90;;;;;;5109208;28;20227;-82
2024/03/07 08:20:11;;;;;;;38.03;20.27;;;3.30;99.90;;;;;;5105164;28;20231;-80
2024/03/07 08:22:41;;;;;;;36.97;21.67;;;3.30;99.90;;;;;;5105580;28;20309;-78
2024/03/07 08:25:09;;;;;;;42.43;21.27;;;3.20;99.90;;;;;;5098130;28;20233;-78
2024/03/07 08:27:36;;;;;;;46.33;20.37;;;3.30;99.90;;;;;;5102170;28;20296;-80
2024/03/07 08:30:03;;;;;;;41.50;22.43;;;3.40;99.90;;;;;;5107227;28;20222;-78
2024/03/07 08:32:30;;;;;;;37.80;21.23;;;3.40;99.90;;;;;;5103563;28;20203;-80
2024/03/07 08:34:57;;;;;;;38.67;21.60;;;3.40;99.90;;;;;;5097157;28;20682;-80
2024/03/07 08:37:24;;;;;;;39.83;21.83;;;3.50;99.90;;;;;;5104559;28;20197;-78
2024/03/07 08:39:52;;;;;;;38.13;22.50;;;3.50;99.90;;;;;;5103467;28;20285;-79
2024/03/07 08:42:19;;;;;;;38.50;22.87;;;3.60;99.90;;;;;;5104977;28;20201;-81
2024/03/07 08:44:46;;;;;;;43.70;23.63;;;3.70;99.90;;;;;;5111281;28;20219;-79
2024/03/07 08:47:13;;;;;;;42.23;21.07;;;3.60;99.90;;;;;;5113482;28;20259;-78
2024/03/07 08:49:40;;;;;;;42.77;21.47;;;3.70;99.90;;;;;;5100535;28;20256;-79
2024/03/07 08:52:08;;;;;;;40.43;21.20;;;3.70;99.90;;;;;;5103237;28;20493;-79
2024/03/07 08:54:35;;;;;;;42.83;22.20;;;3.80;99.90;;;;;;5100839;28;20205;-81
2024/03/07 08:57:04;;;;;;;43.30;23.00;;;3.80;99.90;;;;;;5111448;28;20655;-80
2024/03/07 08:59:33;;;;;;;46.10;22.87;;;3.90;99.90;;;;;;5096127;28;20293;-79
2024/03/07 09:02:01;;;;;;;41.47;21.77;;;4.00;99.90;;;;;;5097642;28;20209;-81
2024/03/07 09:04:30;;;;;;;45.57;23.40;;;4.10;99.90;;;;;;5103609;28;20240;-82
2024/03/07 09:06:58;;;;;;;50.40;25.27;;;4.10;99.90;;;;;;5104789;28;20211;-79
2024/03/07 09:09:25;;;;;;;48.13;22.63;;;4.10;99.90;;;;;;5096793;28;20201;-82
2024/03/07 09:11:52;;;;;;;48.67;25.40;;;4.30;99.90;;;;;;5111118;28;20215;-81
2024/03/07 09:14:20;;;;;;;47.33;23.03;;;4.30;99.90;;;;;;5107436;28;20288;-79
2024/03/07 09:16:48;;;;;;;60.33;25.57;;;4.30;99.90;;;;;;5102718;28;20233;-79
2024/03/07 09:19:19;;;;;;;56.50;25.67;;;4.40;99.90;;;;;;5106870;28;20210;-81
2024/03/07 09:21:46;;;;;;;59.17;23.83;;;4.40;99.90;;;;;;5101897;28;20661;-78
2024/03/07 09:24:15;;;;;;;61.67;27.17;;;4.40;99.90;;;;;;5107000;28;20205;-79
2024/03/07 09:26:42;;;;;;;50.33;23.93;;;4.50;99.90;;;;;;5103966;28;20202;-79
2024/03/07 09:29:10;;;;;;;53.17;23.93;;;4.60;99.90;;;;;;5101649;28;20219;-78
2024/03/07 09:31:40;;;;;;;56.00;24.93;;;4.60;99.90;;;;;;5102073;28;20705;-78
2024/03/07 09:34:06;;;;;;;56.03;24.70;;;4.80;99.90;;;;;;5109240;28;20251;-78
2024/03/07 09:36:33;;;;;;;52.97;22.40;;;4.90;99.90;;;;;;5105630;27;20208;-80
2024/03/07 09:39:00;;;;;;;47.90;20.30;;;4.90;99.90;;;;;;5102338;28;20701;-80
2024/03/07 09:41:27;;;;;;;51.53;21.00;;;4.90;99.90;;;;;;5112825;27;20256;-79
2024/03/07 09:43:57;;;;;;;57.40;22.87;;;4.90;99.90;;;;;;5105503;28;20216;-79
2024/03/07 09:46:24;;;;;;;49.63;19.57;;;5.00;99.90;;;;;;5113971;28;20201;-81
2024/03/07 09:48:54;;;;;;;55.70;22.43;;;5.00;99.90;;;;;;5112791;28;20203;-79
2024/03/07 09:51:22;;;;;;;59.37;23.17;;;5.10;99.90;;;;;;5104270;28;20241;-79
2024/03/07 09:53:51;;;;;;;57.77;23.90;;;5.20;99.90;;;;;;5104607;28;20216;-79
2024/03/07 09:56:21;;;;;;;55.80;21.87;;;5.20;99.90;;;;;;5110188;28;20671;-81
2024/03/07 09:58:50;;;;;;;53.23;23.80;;;5.30;99.90;;;;;;5107242;28;20293;-82
2024/03/07 10:01:21;;;;;;;64.07;24.53;;;5.50;99.90;;;;;;5101632;28;20232;-80
2024/03/07 10:03:50;;;;;;;49.53;21.33;;;5.70;99.90;;;;;;5108771;28;20208;-80
2024/03/07 10:06:18;;;;;;;61.67;24.37;;;5.90;99.90;;;;;;5100835;28;20223;-79
2024/03/07 10:08:45;;;;;;;51.43;21.43;;;6.20;99.90;;;;;;5104315;28;20215;-78
2024/03/07 10:11:14;;;;;;;57.40;23.70;;;6.50;99.90;;;;;;5098332;28;20216;-80
2024/03/07 10:13:41;;;;;;;58.57;21.37;;;6.50;99.90;;;;;;5102060;28;20202;-78
2024/03/07 10:16:11;;;;;;;54.40;21.30;;;6.60;99.90;;;;;;5107923;28;20201;-77
2024/03/07 10:18:43;;;;;;;62.70;24.40;;;6.40;99.90;;;;;;5098695;28;20210;-78
2024/03/07 10:21:11;;;;;;;58.97;23.37;;;6.40;99.90;;;;;;5107111;28;20228;-78
2024/03/07 10:23:40;;;;;;;59.17;22.70;;;6.40;99.90;;;;;;5108999;28;20208;-77
2024/03/07 10:26:07;;;;;;;43.23;20.47;;;6.50;99.90;;;;;;5102760;28;20197;-78
2024/03/07 10:28:34;;;;;;;57.27;23.23;;;6.60;99.90;;;;;;5098678;28;20292;-79
2024/03/07 10:31:03;;;;;;;47.57;21.13;;;6.60;99.90;;;;;;5099696;28;20227;-81
2024/03/07 10:33:33;;;;;;;48.40;21.73;;;6.80;99.90;;;;;;5110118;28;20203;-79
2024/03/07 10:36:01;;;;;;;45.67;19.53;;;6.80;99.90;;;;;;5106616;28;20667;-77
2024/03/07 10:38:28;;;;;;;46.00;19.57;;;6.80;99.90;;;;;;5102305;28;20193;-80
2024/03/07 10:40:56;;;;;;;51.93;23.57;;;7.00;99.90;;;;;;5103306;28;20694;-79
2024/03/07 10:43:26;;;;;;;46.07;19.00;;;6.80;99.90;;;;;;5107115;28;20254;-78
2024/03/07 10:45:56;;;;;;;55.17;21.03;;;6.30;99.90;;;;;;5103470;28;20319;-80
2024/03/07 10:48:30;;;;;;;45.60;19.97;;;6.20;99.90;;;;;;5111100;28;20204;-77
2024/03/07 10:51:09;;;;;;;35.30;13.60;;;6.30;99.90;;;;;;5104894;28;20221;-79
2024/03/07 10:53:44;;;;;;;52.43;21.93;;;6.30;99.90;;;;;;5112570;28;20574;-79
2024/03/07 10:56:25;;;;;;;49.90;22.17;;;6.70;99.90;;;;;;5104683;28;20398;-78
2024/03/07 10:59:03;;;;;;;40.00;17.63;;;6.80;99.90;;;;;;5106208;28;20217;-80
2024/03/07 11:01:33;;;;;;;52.87;22.07;;;6.60;99.90;;;;;;5114925;28;20732;-81
2024/03/07 11:04:04;;;;;;;48.33;22.83;;;6.60;99.90;;;;;;5110454;28;20240;-79
2024/03/07 11:06:33;;;;;;;51.33;22.27;;;6.80;99.90;;;;;;5117847;28;20559;-82
2024/03/07 11:09:03;;;;;;;48.87;22.87;;;6.90;1.00;;;;;;5106576;27;20603;-79
2024/03/07 11:11:32;;;;;;;51.23;23.83;;;6.90;1.00;;;;;;5117488;28;20213;-79
2024/03/07 11:13:59;;;;;;;48.77;22.70;;;7.10;99.90;;;;;;5110726;28;20209;-78
2024/03/07 11:16:27;;;;;;;45.90;20.97;;;7.30;1.00;;;;;;5102964;28;20321;-80
2024/03/07 11:19:21;;;;;;;44.77;20.03;;;7.10;1.00;;;;;;5103146;28;20210;-80
2024/03/07 11:21:48;;;;;;;51.40;23.00;;;7.30;99.90;;;;;;5110204;28;20232;-80
2024/03/07 11:24:25;;;;;;;47.83;21.17;;;7.20;1.00;;;;;;5100215;28;20198;-79
2024/03/07 11:26:54;;;;;;;37.53;17.47;;;7.10;1.00;;;;;;5101630;28;20204;-79
2024/03/07 11:29:43;;;;;;;37.57;18.23;;;7.00;99.90;;;;;;5108023;28;20307;-77
2024/03/07 11:32:11;;;;;;;49.13;23.30;;;7.10;99.90;;;;;;5109265;28;20197;-82
2024/03/07 11:34:41;;;;;;;44.60;21.00;;;7.10;1.00;;;;;;5109679;28;20283;-80
2024/03/07 11:37:17;;;;;;;45.93;19.10;;;7.20;1.00;;;;;;5112215;28;20209;-81
2024/03/07 11:39:46;;;;;;;44.70;21.07;;;7.20;1.00;;;;;;5113253;28;20231;-81
2024/03/07 11:42:30;;;;;;;33.97;16.47;;;7.40;1.00;;;;;;5113029;28;20294;-78
2024/03/07 11:44:58;;;;;;;34.27;15.57;;;7.50;1.00;;;;;;5097349;28;20217;-77
2024/03/07 11:47:28;;;;;;;39.40;17.33;;;7.40;99.90;;;;;;5114379;28;20197;-79
2024/03/07 11:49:57;;;;;;;44.60;22.20;;;7.40;99.90;;;;;;5110789;28;20224;-80
2024/03/07 11:52:26;;;;;;;43.13;21.40;;;7.80;91.10;;;;;;5109330;27;20633;-78
2024/03/07 11:54:53;;;;;;;41.33;21.37;;;7.80;15.90;;;;;;5111863;28;20651;-79
2024/03/07 11:57:26;;;;;;;37.87;19.17;;;7.70;1.00;;;;;;5103438;28;20244;-77
2024/03/07 11:59:54;;;;;;;39.33;19.53;;;7.50;1.00;;;;;;5104693;28;20225;-79
2024/03/07 12:02:22;;;;;;;44.67;18.10;;;7.50;99.90;;;;;;5106905;28;20351;-80
2024/03/07 12:04:49;;;;;;;38.90;19.27;;;7.30;15.70;;;;;;5113665;28;20205;-79
2024/03/07 12:07:18;;;;;;;43.87;20.70;;;7.50;99.90;;;;;;5113197;28;20193;-79
2024/03/07 12:09:50;;;;;;;40.90;18.90;;;8.00;99.90;;;;;;5111265;28;20288;-81
2024/03/07 12:12:18;;;;;;;43.00;17.03;;;8.40;1.00;;;;;;5100270;28;20201;-78
2024/03/07 12:14:45;;;;;;;28.50;13.83;;;8.30;1.00;;;;;;5114562;28;20202;-77
2024/03/07 12:17:15;;;;;;;40.10;19.53;;;8.10;1.00;;;;;;5112268;28;20576;-78
2024/03/07 12:19:42;;;;;;;36.93;18.63;;;8.20;1.00;;;;;;5099986;28;20201;-80
2024/03/07 12:22:12;;;;;;;33.33;15.60;;;8.00;1.00;;;;;;5114949;28;20594;-79
2024/03/07 12:24:41;;;;;;;37.63;16.73;;;7.90;99.90;;;;;;5097181;28;20211;-81
2024/03/07 12:27:10;;;;;;;39.87;19.00;;;7.60;99.90;;;;;;5104967;28;20285;-80
2024/03/07 12:29:38;;;;;;;38.73;17.10;;;7.70;99.90;;;;;;5103102;28;20250;-80
2024/03/07 12:32:07;;;;;;;36.70;19.33;;;7.50;13.70;;;;;;5108947;28;20255;-79
2024/03/07 12:34:40;;;;;;;35.13;18.63;;;7.60;95.50;;;;;;5105316;28;20201;-79
2024/03/07 12:37:09;;;;;;;36.83;18.77;;;7.50;1.00;;;;;;5111327;28;20288;-80
2024/03/07 12:39:38;;;;;;;38.03;19.37;;;7.60;1.00;;;;;;5112571;28;20696;-80
2024/03/07 12:42:06;;;;;;;35.63;17.77;;;7.60;1.00;;;;;;5110593;28;20213;-78